sensor_id;sensor_type;location;lat;lon;timestamp;pressure;altitude;pressure_sealevel;temperature;humidity
54556;BME280;57291;37.520;15.106;2023-04-08T00:01:02;101440.00;;;12.99;64.08
54556;BME280;57291;37.520;15.106;2023-04-08T00:03:29;101436.56;;;12.94;64.21
54556;BME280;57291;37.520;15.106;2023-04-08T00:05:57;101432.19;;;12.93;64.03
54556;BME280;57291;37.520;15.106;2023-04-08T00:08:24;101432.78;;;12.89;64.42
54556;BME280;57291;37.520;15.106;2023-04-08T00:10:51;101432.78;;;12.89;64.78
54556;BME280;57291;37.520;15.106;2023-04-08T00:13:18;101435.28;;;12.86;64.92
54556;BME280;57291;37.520;15.106;2023-04-08T00:15:45;101429.31;;;12.84;65.33
54556;BME280;57291;37.520;15.106;2023-04-08T00:18:13;101431.00;;;12.80;65.21
54556;BME280;57291;37.520;15.106;2023-04-08T00:20:42;101422.81;;;12.80;65.42
54556;BME280;57291;37.520;15.106;2023-04-08T00:23:09;101419.34;;;12.74;65.73
54556;BME280;57291;37.520;15.106;2023-04-08T00:25:36;101422.94;;;12.70;65.79
54556;BME280;57291;37.520;15.106;2023-04-08T00:28:03;101420.53;;;12.68;66.67
54556;BME280;57291;37.520;15.106;2023-04-08T00:30:30;101415.66;;;12.65;66.83
54556;BME280;57291;37.520;15.106;2023-04-08T00:32:58;101416.78;;;12.64;66.52
54556;BME280;57291;37.520;15.106;2023-04-08T00:35:25;101411.00;;;12.65;66.77
54556;BME280;57291;37.520;15.106;2023-04-08T00:37:52;101402.28;;;12.63;66.64
54556;BME280;57291;37.520;15.106;2023-04-08T00:40:19;101402.03;;;12.65;66.25
54556;BME280;57291;37.520;15.106;2023-04-08T00:42:47;101409.41;;;12.64;66.30
54556;BME280;57291;37.520;15.106;2023-04-08T00:45:14;101398.47;;;12.64;65.18
54556;BME280;57291;37.520;15.106;2023-04-08T00:47:41;101403.72;;;12.61;64.79
54556;BME280;57291;37.520;15.106;2023-04-08T00:50:10;101399.94;;;12.57;64.87
54556;BME280;57291;37.520;15.106;2023-04-08T00:52:37;101403.25;;;12.54;64.82
54556;BME280;57291;37.520;15.106;2023-04-08T00:55:05;101402.19;;;12.50;64.88
54556;BME280;57291;37.520;15.106;2023-04-08T00:57:32;101409.34;;;12.46;64.46
54556;BME280;57291;37.520;15.106;2023-04-08T00:59:59;101415.59;;;12.46;64.53
54556;BME280;57291;37.520;15.106;2023-04-08T01:03:11;101411.53;;;12.43;64.49
54556;BME280;57291;37.520;15.106;2023-04-08T01:07:58;101398.53;;;12.40;64.38
54556;BME280;57291;37.520;15.106;2023-04-08T01:10:30;101397.97;;;12.38;64.08
54556;BME280;57291;37.520;15.106;2023-04-08T01:13:03;101394.22;;;12.34;63.98
54556;BME280;57291;37.520;15.106;2023-04-08T01:15:33;101395.88;;;12.30;63.62
54556;BME280;57291;37.520;15.106;2023-04-08T01:18:05;101394.84;;;12.26;63.98
54556;BME280;57291;37.520;15.106;2023-04-08T01:20:33;101384.25;;;12.25;63.87
54556;BME280;57291;37.520;15.106;2023-04-08T01:25:54;101395.50;;;12.18;63.99
54556;BME280;57291;37.520;15.106;2023-04-08T01:28:24;101397.16;;;12.14;64.12
54556;BME280;57291;37.520;15.106;2023-04-08T01:30:54;101394.50;;;12.09;63.96
54556;BME280;57291;37.520;15.106;2023-04-08T01:33:26;101383.38;;;12.05;63.98
54556;BME280;57291;37.520;15.106;2023-04-08T01:35:55;101385.06;;;12.01;63.70
54556;BME280;57291;37.520;15.106;2023-04-08T01:38:24;101393.50;;;12.00;63.37
54556;BME280;57291;37.520;15.106;2023-04-08T01:40:53;101391.59;;;12.00;62.78
54556;BME280;57291;37.520;15.106;2023-04-08T01:43:21;101396.81;;;11.96;62.26
54556;BME280;57291;37.520;15.106;2023-04-08T01:45:51;101384.88;;;11.92;62.44
54556;BME280;57291;37.520;15.106;2023-04-08T01:48:24;101391.44;;;11.91;62.09
54556;BME280;57291;37.520;15.106;2023-04-08T01:50:54;101394.16;;;11.91;61.81
54556;BME280;57291;37.520;15.106;2023-04-08T01:53:22;101387.06;;;11.90;61.59
54556;BME280;57291;37.520;15.106;2023-04-08T01:55:57;101381.09;;;11.88;61.02
54556;BME280;57291;37.520;15.106;2023-04-08T01:58:31;101396.09;;;11.86;61.07
54556;BME280;57291;37.520;15.106;2023-04-08T02:01:05;101377.84;;;11.81;60.82
54556;BME280;57291;37.520;15.106;2023-04-08T02:03:37;101386.31;;;11.80;60.82
54556;BME280;57291;37.520;15.106;2023-04-08T02:06:05;101382.25;;;11.77;61.00
54556;BME280;57291;37.520;15.106;2023-04-08T02:08:35;101383.38;;;11.76;60.80
54556;BME280;57291;37.520;15.106;2023-04-08T02:11:02;101377.38;;;11.74;60.42
54556;BME280;57291;37.520;15.106;2023-04-08T02:13:30;101375.53;;;11.69;60.42
54556;BME280;57291;37.520;15.106;2023-04-08T02:16:31;101362.78;;;11.65;60.54
54556;BME280;57291;37.520;15.106;2023-04-08T02:19:17;101361.44;;;11.62;60.61
54556;BME280;57291;37.520;15.106;2023-04-08T02:21:48;101369.38;;;11.59;60.06
54556;BME280;57291;37.520;15.106;2023-04-08T02:24:19;101362.59;;;11.56;60.43
54556;BME280;57291;37.520;15.106;2023-04-08T02:26:49;101363.41;;;11.51;60.54
54556;BME280;57291;37.520;15.106;2023-04-08T02:29:19;101362.91;;;11.49;60.43
54556;BME280;57291;37.520;15.106;2023-04-08T02:31:52;101353.69;;;11.45;60.19
54556;BME280;57291;37.520;15.106;2023-04-08T02:34:21;101351.00;;;11.40;60.53
54556;BME280;57291;37.520;15.106;2023-04-08T02:36:49;101350.78;;;11.37;60.46
54556;BME280;57291;37.520;15.106;2023-04-08T02:39:17;101348.63;;;11.34;60.49
54556;BME280;57291;37.520;15.106;2023-04-08T02:41:47;101346.47;;;11.31;60.33
54556;BME280;57291;37.520;15.106;2023-04-08T02:44:14;101340.22;;;11.30;59.87
54556;BME280;57291;37.520;15.106;2023-04-08T02:46:42;101338.59;;;11.29;60.08
54556;BME280;57291;37.520;15.106;2023-04-08T02:49:09;101339.72;;;11.23;60.41
54556;BME280;57291;37.520;15.106;2023-04-08T02:51:36;101343.03;;;11.20;60.25
54556;BME280;57291;37.520;15.106;2023-04-08T02:54:03;101343.59;;;11.17;60.20
54556;BME280;57291;37.520;15.106;2023-04-08T02:56:31;101348.47;;;11.15;60.46
54556;BME280;57291;37.520;15.106;2023-04-08T02:58:58;101342.81;;;11.11;60.64
54556;BME280;57291;37.520;15.106;2023-04-08T03:01:25;101340.88;;;11.12;60.33
54556;BME280;57291;37.520;15.106;2023-04-08T03:03:52;101346.06;;;11.13;60.50
54556;BME280;57291;37.520;15.106;2023-04-08T03:06:19;101337.59;;;11.15;60.33
54556;BME280;57291;37.520;15.106;2023-04-08T03:08:46;101335.13;;;11.18;59.62
54556;BME280;57291;37.520;15.106;2023-04-08T03:11:14;101335.13;;;11.18;59.51
54556;BME280;57291;37.520;15.106;2023-04-08T03:13:41;101331.03;;;11.21;59.97
54556;BME280;57291;37.520;15.106;2023-04-08T03:16:08;101342.41;;;11.28;58.61
54556;BME280;57291;37.520;15.106;2023-04-08T03:18:35;101343.97;;;11.34;58.49
54556;BME280;57291;37.520;15.106;2023-04-08T03:21:02;101338.03;;;11.32;58.51
54556;BME280;57291;37.520;15.106;2023-04-08T03:23:29;101336.16;;;11.27;58.42
54556;BME280;57291;37.520;15.106;2023-04-08T03:25:56;101331.00;;;11.26;58.28
54556;BME280;57291;37.520;15.106;2023-04-08T03:28:23;101335.34;;;11.27;58.31
54556;BME280;57291;37.520;15.106;2023-04-08T03:30:50;101339.97;;;11.26;58.09
54556;BME280;57291;37.520;15.106;2023-04-08T03:33:18;101332.06;;;11.25;58.16
54556;BME280;57291;37.520;15.106;2023-04-08T03:35:45;101330.19;;;11.25;58.10
54556;BME280;57291;37.520;15.106;2023-04-08T03:38:12;101327.19;;;11.27;57.62
54556;BME280;57291;37.520;15.106;2023-04-08T03:40:39;101327.16;;;11.32;57.52
54556;BME280;57291;37.520;15.106;2023-04-08T03:43:06;101329.31;;;11.35;57.42
54556;BME280;57291;37.520;15.106;2023-04-08T03:45:34;101332.53;;;11.37;57.09
54556;BME280;57291;37.520;15.106;2023-04-08T03:48:02;101329.53;;;11.39;57.04
54556;BME280;57291;37.520;15.106;2023-04-08T03:50:29;101323.00;;;11.40;57.08
54556;BME280;57291;37.520;15.106;2023-04-08T03:52:56;101336.03;;;11.43;56.96
54556;BME280;57291;37.520;15.106;2023-04-08T03:55:24;101329.47;;;11.44;56.31
54556;BME280;57291;37.520;15.106;2023-04-08T03:57:51;101325.41;;;11.41;56.31
54556;BME280;57291;37.520;15.106;2023-04-08T04:00:18;101325.16;;;11.38;56.58
54556;BME280;57291;37.520;15.106;2023-04-08T04:02:45;101322.19;;;11.39;56.51
54556;BME280;57291;37.520;15.106;2023-04-08T04:05:12;101322.19;;;11.39;56.14
54556;BME280;57291;37.520;15.106;2023-04-08T04:07:39;101312.66;;;11.37;55.99
54556;BME280;57291;37.520;15.106;2023-04-08T04:10:07;101315.97;;;11.34;56.22
54556;BME280;57291;37.520;15.106;2023-04-08T04:12:34;101314.72;;;11.21;57.34
54556;BME280;57291;37.520;15.106;2023-04-08T04:15:01;101325.09;;;11.14;58.48
54556;BME280;57291;37.520;15.106;2023-04-08T04:17:29;101317.03;;;11.03;59.01
54556;BME280;57291;37.520;15.106;2023-04-08T04:19:56;101325.25;;;10.93;59.67
54556;BME280;57291;37.520;15.106;2023-04-08T04:22:23;101312.78;;;10.87;59.38
54556;BME280;57291;37.520;15.106;2023-04-08T04:24:50;101321.22;;;10.86;59.36
54556;BME280;57291;37.520;15.106;2023-04-08T04:27:17;101320.97;;;10.82;59.46
54556;BME280;57291;37.520;15.106;2023-04-08T04:29:44;101319.91;;;10.78;59.45
54556;BME280;57291;37.520;15.106;2023-04-08T04:32:11;101322.06;;;10.81;59.60
54556;BME280;57291;37.520;15.106;2023-04-08T04:34:38;101328.31;;;10.82;59.26
54556;BME280;57291;37.520;15.106;2023-04-08T04:37:05;101321.84;;;10.77;59.14
54556;BME280;57291;37.520;15.106;2023-04-08T04:39:32;101322.94;;;10.76;59.19
54556;BME280;57291;37.520;15.106;2023-04-08T04:42:00;101332.72;;;10.77;59.08
54556;BME280;57291;37.520;15.106;2023-04-08T04:44:27;101341.16;;;10.76;58.65
54556;BME280;57291;37.520;15.106;2023-04-08T04:46:54;101339.50;;;10.75;59.01
54556;BME280;57291;37.520;15.106;2023-04-08T04:49:21;101334.38;;;10.73;58.92
54556;BME280;57291;37.520;15.106;2023-04-08T04:51:48;101347.97;;;10.73;58.82
54556;BME280;57291;37.520;15.106;2023-04-08T04:54:15;101350.69;;;10.73;58.68
54556;BME280;57291;37.520;15.106;2023-04-08T04:56:42;101342.78;;;10.72;58.85
54556;BME280;57291;37.520;15.106;2023-04-08T04:59:09;101348.78;;;10.74;58.76
54556;BME280;57291;37.520;15.106;2023-04-08T05:01:37;101347.41;;;10.76;58.63
54556;BME280;57291;37.520;15.106;2023-04-08T05:04:06;101348.16;;;10.87;58.29
54556;BME280;57291;37.520;15.106;2023-04-08T05:06:34;101359.75;;;10.98;58.00
54556;BME280;57291;37.520;15.106;2023-04-08T05:09:01;101351.53;;;11.08;57.97
54556;BME280;57291;37.520;15.106;2023-04-08T05:11:28;101355.25;;;11.22;57.84
54556;BME280;57291;37.520;15.106;2023-04-08T05:13:55;101358.06;;;11.41;57.97
54556;BME280;57291;37.520;15.106;2023-04-08T05:16:22;101359.53;;;11.63;57.68
54556;BME280;57291;37.520;15.106;2023-04-08T05:18:50;101354.38;;;11.90;57.22
54556;BME280;57291;37.520;15.106;2023-04-08T05:21:18;101360.88;;;12.18;56.96
54556;BME280;57291;37.520;15.106;2023-04-08T05:23:45;101366.97;;;12.53;56.75
54556;BME280;57291;37.520;15.106;2023-04-08T05:26:12;101372.31;;;13.01;56.04
54556;BME280;57291;37.520;15.106;2023-04-08T05:28:41;101366.38;;;13.51;54.94
54556;BME280;57291;37.520;15.106;2023-04-08T05:31:09;101369.28;;;14.01;54.03
54556;BME280;57291;37.520;15.106;2023-04-08T05:33:37;101366.25;;;14.44;53.40
54556;BME280;57291;37.520;15.106;2023-04-08T05:36:05;101370.31;;;14.60;52.62
54556;BME280;57291;37.520;15.106;2023-04-08T05:38:32;101368.75;;;14.82;52.24
54556;BME280;57291;37.520;15.106;2023-04-08T05:40:59;101377.38;;;15.11;51.63
54556;BME280;57291;37.520;15.106;2023-04-08T05:43:26;101364.63;;;15.52;50.97
54556;BME280;57291;37.520;15.106;2023-04-08T05:45:54;101373.50;;;16.11;49.96
54556;BME280;57291;37.520;15.106;2023-04-08T05:48:21;101376.44;;;17.06;48.12
54556;BME280;57291;37.520;15.106;2023-04-08T05:50:48;101373.44;;;18.28;45.47
54556;BME280;57291;37.520;15.106;2023-04-08T05:53:15;101369.97;;;19.65;42.79
54556;BME280;57291;37.520;15.106;2023-04-08T05:55:42;101372.94;;;20.95;40.29
54556;BME280;57291;37.520;15.106;2023-04-08T05:58:09;101381.44;;;22.18;37.91
54556;BME280;57291;37.520;15.106;2023-04-08T06:00:36;101377.13;;;22.91;36.13
54556;BME280;57291;37.520;15.106;2023-04-08T06:03:03;101371.75;;;23.37;34.59
54556;BME280;57291;37.520;15.106;2023-04-08T06:05:31;101372.31;;;23.66;33.90
54556;BME280;57291;37.520;15.106;2023-04-08T06:07:58;101375.34;;;24.03;33.59
54556;BME280;57291;37.520;15.106;2023-04-08T06:10:26;101361.34;;;24.46;32.68
54556;BME280;57291;37.520;15.106;2023-04-08T06:12:53;101373.75;;;24.82;32.78
54556;BME280;57291;37.520;15.106;2023-04-08T06:15:20;101371.09;;;25.23;32.03
54556;BME280;57291;37.520;15.106;2023-04-08T06:17:47;101373.50;;;25.62;31.19
54556;BME280;57291;37.520;15.106;2023-04-08T06:20:15;101367.56;;;26.08;30.61
54556;BME280;57291;37.520;15.106;2023-04-08T06:22:42;101375.25;;;26.22;29.64
54556;BME280;57291;37.520;15.106;2023-04-08T06:25:09;101365.28;;;26.79;28.94
54556;BME280;57291;37.520;15.106;2023-04-08T06:27:36;101366.13;;;26.94;28.60
54556;BME280;57291;37.520;15.106;2023-04-08T06:30:03;101361.41;;;27.02;28.03
54556;BME280;57291;37.520;15.106;2023-04-08T06:32:30;101372.84;;;26.75;28.44
54556;BME280;57291;37.520;15.106;2023-04-08T06:34:57;101366.00;;;26.65;27.76
54556;BME280;57291;37.520;15.106;2023-04-08T06:37:24;101374.69;;;26.50;29.92
54556;BME280;57291;37.520;15.106;2023-04-08T06:39:51;101373.72;;;26.31;29.12
54556;BME280;57291;37.520;15.106;2023-04-08T06:42:19;101364.81;;;25.67;30.24
54556;BME280;57291;37.520;15.106;2023-04-08T06:45:07;101366.44;;;25.00;31.53
54556;BME280;57291;37.520;15.106;2023-04-08T06:47:34;101370.19;;;25.12;31.01
54556;BME280;57291;37.520;15.106;2023-04-08T06:50:01;101368.50;;;25.37;30.59
54556;BME280;57291;37.520;15.106;2023-04-08T06:52:28;101370.22;;;24.85;31.67
54556;BME280;57291;37.520;15.106;2023-04-08T06:54:56;101372.78;;;23.29;33.46
54556;BME280;57291;37.520;15.106;2023-04-08T06:57:23;101368.19;;;23.37;33.35
54556;BME280;57291;37.520;15.106;2023-04-08T06:59:50;101372.97;;;23.59;33.36
54556;BME280;57291;37.520;15.106;2023-04-08T07:02:19;101373.53;;;23.69;33.35
54556;BME280;57291;37.520;15.106;2023-04-08T07:04:48;101365.78;;;23.58;32.81
54556;BME280;57291;37.520;15.106;2023-04-08T07:07:15;101367.09;;;23.22;33.83
54556;BME280;57291;37.520;15.106;2023-04-08T07:09:42;101373.28;;;22.96;34.38
54556;BME280;57291;37.520;15.106;2023-04-08T07:12:11;101368.22;;;22.47;35.04
54556;BME280;57291;37.520;15.106;2023-04-08T07:14:39;101370.94;;;21.96;36.97
54556;BME280;57291;37.520;15.106;2023-04-08T07:17:06;101362.34;;;21.53;36.92
54556;BME280;57291;37.520;15.106;2023-04-08T07:19:33;101367.63;;;21.90;35.95
54556;BME280;57291;37.520;15.106;2023-04-08T07:22:02;101367.97;;;21.29;37.43
54556;BME280;57291;37.520;15.106;2023-04-08T07:24:29;101366.59;;;21.95;36.56
54556;BME280;57291;37.520;15.106;2023-04-08T07:26:56;101372.09;;;21.07;37.27
54556;BME280;57291;37.520;15.106;2023-04-08T07:29:24;101372.84;;;21.48;36.18
54556;BME280;57291;37.520;15.106;2023-04-08T07:31:51;101375.00;;;21.54;36.66
54556;BME280;57291;37.520;15.106;2023-04-08T07:34:18;101371.75;;;21.81;35.73
54556;BME280;57291;37.520;15.106;2023-04-08T07:36:45;101384.09;;;21.39;36.71
54556;BME280;57291;37.520;15.106;2023-04-08T07:39:12;101374.69;;;21.72;36.02
54556;BME280;57291;37.520;15.106;2023-04-08T07:41:39;101379.88;;;21.45;35.76
54556;BME280;57291;37.520;15.106;2023-04-08T07:44:06;101394.81;;;22.16;34.52
54556;BME280;57291;37.520;15.106;2023-04-08T07:46:36;101385.47;;;21.33;34.58
54556;BME280;57291;37.520;15.106;2023-04-08T07:49:04;101392.09;;;21.72;34.97
54556;BME280;57291;37.520;15.106;2023-04-08T07:51:32;101392.41;;;21.55;33.29
54556;BME280;57291;37.520;15.106;2023-04-08T07:54:00;101392.91;;;21.89;33.11
54556;BME280;57291;37.520;15.106;2023-04-08T07:56:27;101394.41;;;22.85;31.38
54556;BME280;57291;37.520;15.106;2023-04-08T07:58:54;101399.22;;;23.23;31.32
54556;BME280;57291;37.520;15.106;2023-04-08T08:01:22;101395.47;;;23.15;29.74
54556;BME280;57291;37.520;15.106;2023-04-08T08:03:50;101390.84;;;23.62;29.53
54556;BME280;57291;37.520;15.106;2023-04-08T08:06:19;101397.28;;;23.66;29.10
54556;BME280;57291;37.520;15.106;2023-04-08T08:08:46;101401.28;;;23.49;28.88
54556;BME280;57291;37.520;15.106;2023-04-08T08:11:13;101396.44;;;23.65;28.27
54556;BME280;57291;37.520;15.106;2023-04-08T08:13:41;101391.50;;;23.55;28.32
54556;BME280;57291;37.520;15.106;2023-04-08T08:16:08;101388.22;;;23.92;27.02
54556;BME280;57291;37.520;15.106;2023-04-08T08:18:38;101396.75;;;24.03;26.77
54556;BME280;57291;37.520;15.106;2023-04-08T08:21:06;101399.88;;;23.78;27.18
54556;BME280;57291;37.520;15.106;2023-04-08T08:23:34;101393.84;;;23.53;26.99
54556;BME280;57291;37.520;15.106;2023-04-08T08:26:05;101401.91;;;23.20;27.66
54556;BME280;57291;37.520;15.106;2023-04-08T08:28:33;101402.84;;;22.73;28.77
54556;BME280;57291;37.520;15.106;2023-04-08T08:31:00;101403.66;;;22.38;28.66
54556;BME280;57291;37.520;15.106;2023-04-08T08:33:28;101407.06;;;21.71;30.34
54556;BME280;57291;37.520;15.106;2023-04-08T08:35:55;101401.47;;;21.40;30.31
54556;BME280;57291;37.520;15.106;2023-04-08T08:38:24;101405.09;;;21.16;30.25
54556;BME280;57291;37.520;15.106;2023-04-08T08:40:55;101400.25;;;20.84;30.35
54556;BME280;57291;37.520;15.106;2023-04-08T08:43:24;101406.50;;;20.57;30.56
54556;BME280;57291;37.520;15.106;2023-04-08T08:45:53;101405.56;;;20.41;31.03
54556;BME280;57291;37.520;15.106;2023-04-08T08:48:20;101406.84;;;20.31;31.11
54556;BME280;57291;37.520;15.106;2023-04-08T08:50:48;101410.84;;;20.09;32.13
54556;BME280;57291;37.520;15.106;2023-04-08T08:53:16;101394.50;;;19.91;32.04
54556;BME280;57291;37.520;15.106;2023-04-08T08:55:45;101403.88;;;19.78;32.22
54556;BME280;57291;37.520;15.106;2023-04-08T08:58:15;101394.31;;;19.63;33.20
54556;BME280;57291;37.520;15.106;2023-04-08T09:00:43;101397.63;;;19.36;34.56
54556;BME280;57291;37.520;15.106;2023-04-08T09:03:25;101397.41;;;19.41;33.45
54556;BME280;57291;37.520;15.106;2023-04-08T09:05:59;101395.56;;;19.33;32.60
54556;BME280;57291;37.520;15.106;2023-04-08T09:08:34;101396.84;;;19.14;33.50
54556;BME280;57291;37.520;15.106;2023-04-08T09:11:18;101396.22;;;19.30;33.96
54556;BME280;57291;37.520;15.106;2023-04-08T09:13:47;101402.47;;;19.39;34.04
54556;BME280;57291;37.520;15.106;2023-04-08T09:16:16;101410.94;;;19.34;34.07
54556;BME280;57291;37.520;15.106;2023-04-08T09:18:45;101400.31;;;18.82;35.24
54556;BME280;57291;37.520;15.106;2023-04-08T09:21:15;101394.88;;;19.36;34.34
54556;BME280;57291;37.520;15.106;2023-04-08T09:23:48;101384.47;;;19.41;36.58
54556;BME280;57291;37.520;15.106;2023-04-08T09:26:20;101391.00;;;19.16;35.56
54556;BME280;57291;37.520;15.106;2023-04-08T09:29:09;101401.34;;;18.77;35.60
54556;BME280;57291;37.520;15.106;2023-04-08T09:31:55;101404.09;;;18.47;40.45
54556;BME280;57291;37.520;15.106;2023-04-08T09:34:23;101409.28;;;18.11;47.55
54556;BME280;57291;37.520;15.106;2023-04-08T09:36:51;101405.84;;;17.06;52.26
54556;BME280;57291;37.520;15.106;2023-04-08T09:39:18;101419.41;;;16.85;54.08
54556;BME280;57291;37.520;15.106;2023-04-08T09:41:50;101417.59;;;16.32;54.06
54556;BME280;57291;37.520;15.106;2023-04-08T09:44:20;101416.09;;;15.86;55.97
54556;BME280;57291;37.520;15.106;2023-04-08T09:49:29;101411.25;;;16.14;55.80
54556;BME280;57291;37.520;15.106;2023-04-08T09:57:21;101407.81;;;16.48;54.38
54556;BME280;57291;37.520;15.106;2023-04-08T09:59:53;101404.16;;;16.13;55.48
54556;BME280;57291;37.520;15.106;2023-04-08T10:02:28;101402.91;;;15.43;58.38
54556;BME280;57291;37.520;15.106;2023-04-08T10:04:59;101397.94;;;15.45;58.04
54556;BME280;57291;37.520;15.106;2023-04-08T10:07:33;101406.53;;;15.52;58.24
54556;BME280;57291;37.520;15.106;2023-04-08T10:10:01;101399.34;;;15.65;58.06
54556;BME280;57291;37.520;15.106;2023-04-08T10:12:29;101399.41;;;15.96;56.84
54556;BME280;57291;37.520;15.106;2023-04-08T10:15:25;101393.72;;;16.24;55.90
54556;BME280;57291;37.520;15.106;2023-04-08T10:17:54;101390.72;;;16.42;55.76
54556;BME280;57291;37.520;15.106;2023-04-08T10:23:05;101388.81;;;16.60;54.79
54556;BME280;57291;37.520;15.106;2023-04-08T10:25:37;101389.84;;;16.82;54.58
54556;BME280;57291;37.520;15.106;2023-04-08T10:33:13;101381.31;;;16.92;54.06
54556;BME280;57291;37.520;15.106;2023-04-08T10:35:45;101373.38;;;16.99;54.71
54556;BME280;57291;37.520;15.106;2023-04-08T10:38:15;101375.56;;;16.54;55.42
54556;BME280;57291;37.520;15.106;2023-04-08T10:40:43;101378.00;;;16.07;56.64
54556;BME280;57291;37.520;15.106;2023-04-08T10:43:13;101382.06;;;16.09;57.69
54556;BME280;57291;37.520;15.106;2023-04-08T10:45:41;101376.75;;;16.13;58.91
54556;BME280;57291;37.520;15.106;2023-04-08T10:48:16;101370.91;;;16.63;57.57
54556;BME280;57291;37.520;15.106;2023-04-08T10:53:28;101375.91;;;16.70;59.62
54556;BME280;57291;37.520;15.106;2023-04-08T10:56:13;101370.50;;;16.30;60.85
54556;BME280;57291;37.520;15.106;2023-04-08T10:58:48;101371.19;;;16.44;58.51
54556;BME280;57291;37.520;15.106;2023-04-08T11:01:18;101376.97;;;16.34;56.71
54556;BME280;57291;37.520;15.106;2023-04-08T11:03:45;101372.16;;;16.39;56.31
54556;BME280;57291;37.520;15.106;2023-04-08T11:06:13;101367.69;;;16.70;55.67
54556;BME280;57291;37.520;15.106;2023-04-08T11:08:40;101360.78;;;16.90;56.38
54556;BME280;57291;37.520;15.106;2023-04-08T11:11:08;101371.94;;;17.02;55.77
54556;BME280;57291;37.520;15.106;2023-04-08T11:13:39;101359.31;;;16.83;56.77
54556;BME280;57291;37.520;15.106;2023-04-08T11:16:20;101360.06;;;16.58;57.97
54556;BME280;57291;37.520;15.106;2023-04-08T11:18:47;101352.66;;;16.67;59.20
54556;BME280;57291;37.520;15.106;2023-04-08T11:21:16;101363.44;;;16.46;59.03
54556;BME280;57291;37.520;15.106;2023-04-08T11:23:43;101345.53;;;16.40;57.93
54556;BME280;57291;37.520;15.106;2023-04-08T11:26:12;101351.66;;;16.46;59.36
54556;BME280;57291;37.520;15.106;2023-04-08T11:28:39;101346.28;;;16.32;60.81
54556;BME280;57291;37.520;15.106;2023-04-08T11:31:07;101345.78;;;16.21;60.87
54556;BME280;57291;37.520;15.106;2023-04-08T11:33:35;101333.50;;;16.18;59.91
54556;BME280;57291;37.520;15.106;2023-04-08T11:36:03;101340.63;;;16.20;61.21
54556;BME280;57291;37.520;15.106;2023-04-08T11:38:30;101334.69;;;16.26;61.78
54556;BME280;57291;37.520;15.106;2023-04-08T11:40:58;101326.06;;;16.10;60.87
54556;BME280;57291;37.520;15.106;2023-04-08T11:43:26;101329.75;;;15.97;63.13
54556;BME280;57291;37.520;15.106;2023-04-08T11:45:53;101324.94;;;16.11;61.92
54556;BME280;57291;37.520;15.106;2023-04-08T11:48:20;101325.75;;;16.03;61.93
54556;BME280;57291;37.520;15.106;2023-04-08T11:50:47;101321.13;;;16.30;60.39
54556;BME280;57291;37.520;15.106;2023-04-08T11:53:28;101315.28;;;16.14;61.50
54556;BME280;57291;37.520;15.106;2023-04-08T11:55:55;101296.06;;;16.05;60.86
54556;BME280;57291;37.520;15.106;2023-04-08T11:58:22;101320.03;;;15.91;62.28
54556;BME280;57291;37.520;15.106;2023-04-08T12:00:49;101313.34;;;16.06;60.75
54556;BME280;57291;37.520;15.106;2023-04-08T12:03:16;101317.81;;;15.93;62.70
54556;BME280;57291;37.520;15.106;2023-04-08T12:05:44;101314.28;;;16.01;64.81
54556;BME280;57291;37.520;15.106;2023-04-08T12:08:12;101316.72;;;16.11;62.87
54556;BME280;57291;37.520;15.106;2023-04-08T12:10:39;101314.91;;;15.98;64.94
54556;BME280;57291;37.520;15.106;2023-04-08T12:13:06;101302.19;;;16.11;63.54
54556;BME280;57291;37.520;15.106;2023-04-08T12:15:34;101300.09;;;16.08;64.02
54556;BME280;57291;37.520;15.106;2023-04-08T12:18:01;101299.53;;;15.88;64.75
54556;BME280;57291;37.520;15.106;2023-04-08T12:20:28;101298.63;;;15.93;66.33
54556;BME280;57291;37.520;15.106;2023-04-08T12:22:55;101296.22;;;16.09;66.45
54556;BME280;57291;37.520;15.106;2023-04-08T12:25:22;101291.56;;;16.09;67.12
54556;BME280;57291;37.520;15.106;2023-04-08T12:27:49;101284.75;;;15.98;66.60
54556;BME280;57291;37.520;15.106;2023-04-08T12:30:16;101282.22;;;16.10;66.98
54556;BME280;57291;37.520;15.106;2023-04-08T12:32:43;101280.66;;;16.35;66.60
54556;BME280;57291;37.520;15.106;2023-04-08T12:35:13;101282.25;;;16.28;65.75
54556;BME280;57291;37.520;15.106;2023-04-08T12:37:40;101273.06;;;16.32;66.60
54556;BME280;57291;37.520;15.106;2023-04-08T12:40:08;101276.13;;;16.31;66.44
54556;BME280;57291;37.520;15.106;2023-04-08T12:42:35;101269.81;;;16.22;68.42
54556;BME280;57291;37.520;15.106;2023-04-08T12:45:02;101264.00;;;16.32;66.84
54556;BME280;57291;37.520;15.106;2023-04-08T12:47:29;101260.16;;;16.33;66.88
54556;BME280;57291;37.520;15.106;2023-04-08T12:49:57;101259.81;;;16.26;65.32
54556;BME280;57291;37.520;15.106;2023-04-08T12:52:24;101254.28;;;16.08;67.68
54556;BME280;57291;37.520;15.106;2023-04-08T12:54:51;101257.38;;;16.15;67.57
54556;BME280;57291;37.520;15.106;2023-04-08T12:57:18;101252.56;;;16.30;66.32
54556;BME280;57291;37.520;15.106;2023-04-08T12:59:45;101252.09;;;16.54;64.86
54556;BME280;57291;37.520;15.106;2023-04-08T13:02:12;101245.91;;;16.22;66.59
54556;BME280;57291;37.520;15.106;2023-04-08T13:04:39;101239.47;;;16.18;68.45
54556;BME280;57291;37.520;15.106;2023-04-08T13:07:06;101239.94;;;16.11;68.35
54556;BME280;57291;37.520;15.106;2023-04-08T13:09:33;101236.25;;;16.16;67.79
54556;BME280;57291;37.520;15.106;2023-04-08T13:12:01;101236.69;;;16.01;68.73